Etusivu
METAR-TAF:

METAR-TAF

Lentoasemat :

Grand Rapids/Itasca County Airport (Gordon Newstrom Field)

Grand Rapids, Minnesota, Yhdysvallat

Leveyspiiri: 47-13N, Pituuspiiri: 093-31W, korkeus merenpinnasta: 413 m

Tämänhetkinen sää

Tämä raportti tehtiin 11 minuuttia sitten, kello 06.56 UTC
Tuuli 7 kn etelästä/kaakosta
Lämpötila -11°C
Kosteus 92%
Ilmanpaine 1012 hPa
Näkyvyys: 3.2 km
Hajanaisia pilviä 2200 ft:n korkeudessa
Hajonneita pilviä 2700 ft:n korkeudessa
Pilvistä 3500 ft:n korkeudessa
heikkoa lumisadetta, utua

METAR: KGPZ 130656Z AUTO 15007KT 2SM -SN BR SCT022 BKN027 OVC035 M11/M12 A2989 RMK AO2 SLP150 P0000 T11061122 FZRANO

Aika: 01:07 (07:07 UTC)


TAF: puuttuu

Säähavainnot ja -ennusteet yli 4000 lentoasemalta (METAR- ja TAF-raportit).

Käytössä olevat sääasemat on merkitty karttaan keltaisilla ja punaisilla pisteillä.

Aseta hiiri pisteen päälle nähdäksesi sääaseman nimen.

Klikkaa sitten nähdäksesi säähavainnot ja -ennusteet.

Kartan vaihtaminen: klikkaa mustalla rastilla varustettuja vihreitä pisteitä, niin voit zoomata sisään; viivalla varustettua vihreää pistettä, niin voit zoomata ulos tai vihreitä nuolia, niin pääset viereisille kartoille.


METAR-TAF: